createdAt,value
2023-02-23T00:00:01.231Z,17.43
2023-02-23T00:03:06.390Z,17.93
2023-02-23T00:06:10.301Z,17.03
2023-02-23T00:09:23.070Z,18.63
2023-02-23T00:12:26.979Z,17.87
2023-02-23T00:15:30.502Z,17.53
2023-02-23T00:18:45.038Z,17.90
2023-02-23T00:21:48.171Z,18.80
2023-02-23T00:24:54.105Z,17.60
2023-02-23T00:27:57.277Z,18.97
2023-02-23T00:31:04.100Z,19.57
2023-02-23T00:34:15.073Z,19.07
2023-02-23T00:37:19.518Z,18.90
2023-02-23T00:40:27.336Z,18.20
2023-02-23T00:43:30.451Z,18.43
2023-02-23T00:46:33.457Z,18.40
2023-02-23T00:49:40.697Z,17.83
2023-02-23T00:52:45.258Z,18.00
2023-02-23T00:55:48.601Z,19.20
2023-02-23T00:58:51.911Z,18.77
2023-02-23T01:01:57.590Z,20.53
2023-02-23T01:05:02.029Z,18.73
2023-02-23T01:08:10.136Z,18.93
2023-02-23T01:11:19.434Z,20.43
2023-02-23T01:14:23.604Z,18.40
2023-02-23T01:17:27.563Z,18.23
2023-02-23T01:20:36.151Z,19.23
2023-02-23T01:23:41.644Z,18.77
2023-02-23T01:26:49.786Z,20.73
2023-02-23T01:29:52.860Z,18.53
2023-02-23T01:32:56.023Z,18.53
2023-02-23T01:36:01.627Z,19.37
2023-02-23T01:39:07.739Z,19.03
2023-02-23T01:42:14.588Z,20.40
2023-02-23T01:45:34.757Z,20.60
2023-02-23T01:48:41.494Z,20.93
2023-02-23T01:51:51.402Z,20.63
2023-02-23T01:54:56.908Z,18.63
2023-02-23T01:58:15.505Z,18.87
2023-02-23T02:01:19.781Z,19.80
2023-02-23T02:04:26.021Z,20.10
2023-02-23T02:07:35.137Z,19.73
2023-02-23T02:10:46.370Z,19.30
2023-02-23T02:13:50.683Z,21.10
2023-02-23T02:17:16.819Z,20.73
2023-02-23T02:21:15.999Z,18.73
2023-02-23T02:25:00.821Z,19.57
2023-02-23T02:28:54.732Z,21.57
2023-02-23T02:32:33.494Z,19.13
2023-02-23T02:36:19.869Z,19.50
2023-02-23T02:39:38.215Z,19.53
2023-02-23T02:42:58.262Z,19.43
2023-02-23T02:46:12.988Z,19.77
2023-02-23T02:49:26.682Z,19.47
2023-02-23T02:52:36.300Z,20.10
2023-02-23T02:55:43.880Z,17.83
2023-02-23T02:58:50.574Z,21.37
2023-02-23T03:02:12.581Z,19.67
2023-02-23T03:05:35.715Z,20.37
2023-02-23T03:09:03.682Z,20.67
2023-02-23T03:12:44.192Z,20.30
2023-02-23T03:16:22.075Z,20.90
2023-02-23T03:19:46.563Z,21.07
2023-02-23T03:23:16.517Z,18.50
2023-02-23T03:26:47.694Z,19.47
2023-02-23T03:30:17.667Z,18.73
2023-02-23T03:33:51.483Z,20.30
2023-02-23T03:37:25.211Z,20.80
2023-02-23T03:40:52.289Z,20.47
2023-02-23T03:44:17.145Z,20.27
2023-02-23T03:47:43.977Z,21.17
2023-02-23T03:51:13.339Z,21.70
2023-02-23T03:54:38.967Z,19.40
2023-02-23T03:58:02.560Z,20.23
2023-02-23T04:01:29.216Z,19.70
2023-02-23T04:04:53.473Z,18.73
2023-02-23T04:08:14.980Z,21.20
2023-02-23T04:11:44.661Z,21.23
2023-02-23T04:14:57.580Z,21.73
2023-02-23T04:18:01.268Z,19.90
2023-02-23T04:21:07.871Z,19.87
2023-02-23T04:24:12.058Z,21.17
2023-02-23T04:27:15.778Z,20.80
2023-02-23T04:30:20.542Z,20.80
2023-02-23T04:33:25.072Z,21.00
2023-02-23T04:36:29.468Z,21.73
2023-02-23T04:39:32.844Z,20.83
2023-02-23T04:42:36.546Z,20.13
2023-02-23T04:45:40.035Z,22.27
2023-02-23T04:48:43.189Z,22.17
2023-02-23T04:51:47.977Z,21.00
2023-02-23T04:54:51.230Z,21.83
2023-02-23T04:58:00.277Z,20.43
2023-02-23T05:01:09.678Z,21.90
2023-02-23T05:04:13.067Z,22.13
2023-02-23T05:07:17.829Z,21.07
2023-02-23T05:10:21.576Z,22.03
2023-02-23T05:13:24.939Z,20.53
2023-02-23T05:16:28.248Z,19.87
2023-02-23T05:19:31.544Z,19.53
2023-02-23T05:22:36.152Z,19.70
2023-02-23T05:25:39.771Z,21.63
2023-02-23T05:28:44.329Z,20.63
2023-02-23T05:31:48.651Z,20.70
2023-02-23T05:34:52.374Z,21.90
2023-02-23T05:37:58.807Z,22.63
2023-02-23T05:41:07.322Z,19.90
2023-02-23T05:44:11.188Z,19.93
2023-02-23T05:47:14.453Z,20.53
2023-02-23T05:50:17.873Z,18.77
2023-02-23T05:53:32.363Z,20.63
2023-02-23T05:56:35.621Z,20.10
2023-02-23T05:59:38.784Z,19.03
2023-02-23T06:02:42.540Z,21.23
2023-02-23T06:05:54.096Z,19.47
2023-02-23T06:08:59.509Z,20.70
2023-02-23T06:12:02.646Z,22.57
2023-02-23T06:15:07.397Z,19.80
2023-02-23T06:18:10.903Z,20.20
2023-02-23T06:21:15.806Z,19.90
2023-02-23T06:24:20.322Z,20.57
2023-02-23T06:27:23.346Z,21.50
2023-02-23T06:30:29.645Z,20.37
2023-02-23T06:33:32.761Z,21.47
2023-02-23T06:36:36.107Z,22.40
2023-02-23T06:39:40.565Z,21.13
2023-02-23T06:42:43.676Z,20.70
2023-02-23T06:45:47.880Z,19.93
2023-02-23T06:48:51.667Z,20.13
2023-02-23T06:51:55.323Z,22.37
2023-02-23T06:55:02.664Z,20.13
2023-02-23T06:58:07.180Z,20.83
2023-02-23T07:01:14.176Z,21.63
2023-02-23T07:04:17.385Z,22.43
2023-02-23T07:07:20.984Z,21.57
2023-02-23T07:10:28.130Z,23.43
2023-02-23T07:13:37.008Z,22.53
2023-02-23T07:16:40.573Z,20.37
2023-02-23T07:19:43.655Z,22.50
2023-02-23T07:22:47.350Z,22.33
2023-02-23T07:25:53.048Z,22.07
2023-02-23T07:28:58.370Z,22.67
2023-02-23T07:32:01.975Z,23.33
2023-02-23T07:35:06.907Z,20.47
2023-02-23T07:38:10.382Z,22.10
2023-02-23T07:41:18.270Z,22.23
2023-02-23T07:44:21.782Z,22.60
2023-02-23T07:47:30.880Z,21.73
2023-02-23T07:50:35.562Z,23.57
2023-02-23T07:53:41.419Z,23.37
2023-02-23T07:56:45.870Z,23.30
2023-02-23T07:59:49.336Z,22.07
2023-02-23T08:02:54.009Z,21.13
2023-02-23T08:05:57.489Z,22.03
2023-02-23T08:09:01.105Z,22.60
2023-02-23T08:12:06.342Z,23.27
2023-02-23T08:15:11.507Z,24.47
2023-02-23T08:18:14.692Z,23.93
2023-02-23T08:21:17.833Z,24.40
2023-02-23T08:24:20.968Z,23.93
2023-02-23T08:27:25.786Z,23.80
2023-02-23T08:30:28.884Z,22.77
2023-02-23T08:33:33.047Z,21.30
2023-02-23T08:36:36.397Z,23.37
2023-02-23T08:39:43.521Z,23.70
2023-02-23T08:42:52.504Z,22.63
2023-02-23T08:45:55.887Z,25.87
2023-02-23T08:48:59.548Z,24.07
2023-02-23T08:52:02.544Z,22.87
2023-02-23T08:55:06.604Z,28.13
2023-02-23T08:58:12.386Z,24.17
2023-02-23T09:01:19.316Z,23.63
2023-02-23T09:04:22.868Z,23.53
2023-02-23T09:07:26.853Z,24.63
2023-02-23T09:10:30.280Z,22.90
2023-02-23T09:13:36.511Z,23.00
2023-02-23T09:16:39.756Z,23.17
2023-02-23T09:19:42.921Z,22.40
2023-02-23T09:22:48.795Z,24.00
2023-02-23T09:25:52.000Z,21.33
2023-02-23T09:28:56.670Z,22.93
2023-02-23T09:32:00.023Z,22.53
2023-02-23T09:35:03.129Z,22.30
2023-02-23T09:38:08.332Z,21.10
2023-02-23T09:41:52.461Z,21.00
2023-02-23T09:45:20.112Z,20.70
2023-02-23T09:48:27.706Z,21.47
2023-02-23T09:51:35.929Z,21.90
2023-02-23T09:54:41.787Z,21.73
2023-02-23T09:57:49.247Z,23.00
2023-02-23T10:01:30.643Z,21.97
2023-02-23T10:04:40.892Z,22.37
2023-02-23T10:07:50.673Z,21.60
2023-02-23T10:11:08.390Z,22.40
2023-02-23T10:14:31.673Z,24.10
2023-02-23T10:17:46.508Z,22.50
2023-02-23T10:20:58.241Z,22.17
2023-02-23T10:24:05.664Z,23.40
2023-02-23T10:27:15.615Z,23.23
2023-02-23T10:30:23.090Z,23.27
2023-02-23T10:33:34.932Z,23.10
2023-02-23T10:36:41.215Z,21.40
2023-02-23T10:39:44.379Z,21.17
2023-02-23T10:42:47.726Z,23.53
2023-02-23T10:45:53.720Z,23.33
2023-02-23T10:49:00.488Z,25.33
2023-02-23T10:52:03.710Z,24.30
2023-02-23T10:55:09.693Z,22.70
2023-02-23T10:58:17.784Z,22.90
2023-02-23T11:01:41.914Z,24.50
2023-02-23T11:04:57.033Z,24.37
2023-02-23T11:08:29.201Z,23.87
2023-02-23T11:11:32.389Z,23.03
2023-02-23T11:14:35.442Z,24.00
2023-02-23T11:17:39.442Z,23.87
2023-02-23T11:20:44.828Z,22.23
2023-02-23T11:23:55.054Z,24.73
2023-02-23T11:27:03.739Z,23.13
2023-02-23T11:30:08.962Z,24.47
2023-02-23T11:33:18.759Z,23.23
2023-02-23T11:36:30.517Z,25.10
2023-02-23T11:39:34.445Z,23.77
2023-02-23T11:42:37.507Z,24.73
2023-02-23T11:45:48.454Z,24.90
2023-02-23T11:48:55.985Z,23.30
2023-02-23T11:52:00.548Z,24.63
2023-02-23T11:55:08.985Z,24.70
2023-02-23T11:58:25.095Z,24.33
2023-02-23T12:01:45.571Z,24.27
2023-02-23T12:04:48.830Z,25.10
2023-02-23T12:08:01.312Z,23.53
2023-02-23T12:11:09.329Z,23.47
2023-02-23T12:14:23.007Z,23.10
2023-02-23T12:17:29.068Z,24.90
2023-02-23T12:20:42.524Z,24.73
2023-02-23T12:23:53.007Z,23.33
2023-02-23T12:27:00.299Z,26.47
2023-02-23T12:30:13.412Z,23.77
2023-02-23T12:33:30.098Z,24.60
2023-02-23T12:36:40.275Z,24.40
2023-02-23T12:39:48.461Z,24.27
2023-02-23T12:43:01.489Z,24.33
2023-02-23T12:46:13.128Z,23.80
2023-02-23T12:49:26.616Z,23.30
2023-02-23T12:52:36.695Z,24.83
2023-02-23T12:55:58.245Z,25.70
2023-02-23T12:59:21.916Z,23.80
2023-02-23T13:02:31.513Z,22.63
2023-02-23T13:05:39.553Z,24.90
2023-02-23T13:09:01.745Z,23.90
2023-02-23T13:12:28.528Z,24.23
2023-02-23T13:15:48.196Z,25.00
2023-02-23T13:19:15.256Z,25.30
2023-02-23T13:22:32.555Z,23.83
2023-02-23T13:25:44.110Z,23.00
2023-02-23T13:28:58.684Z,24.17
2023-02-23T13:32:04.892Z,23.47
2023-02-23T13:35:15.763Z,22.80
2023-02-23T13:38:32.177Z,24.03
2023-02-23T13:41:40.387Z,22.37
2023-02-23T13:44:52.374Z,23.73
2023-02-23T13:48:02.077Z,25.77
2023-02-23T13:51:15.892Z,24.17
2023-02-23T13:54:35.761Z,25.40
2023-02-23T13:57:46.158Z,25.03
2023-02-23T14:01:06.017Z,26.00
2023-02-23T14:04:17.290Z,26.67
2023-02-23T14:07:28.117Z,25.00
2023-02-23T14:10:38.643Z,26.00
2023-02-23T14:13:59.414Z,24.27
2023-02-23T14:17:57.816Z,26.37
2023-02-23T14:21:17.892Z,24.63
2023-02-23T14:24:24.424Z,27.07
2023-02-23T14:27:41.908Z,26.90
2023-02-23T14:30:53.065Z,28.53
2023-02-23T14:34:08.064Z,29.23
2023-02-23T14:37:21.933Z,31.77
2023-02-23T14:40:57.147Z,32.50
2023-02-23T14:44:12.283Z,30.37
2023-02-23T14:47:50.624Z,30.50
2023-02-23T14:55:30.926Z,30.53
2023-02-23T14:58:35.157Z,31.97
2023-02-23T15:01:40.982Z,33.33
2023-02-23T15:04:44.091Z,33.73
2023-02-23T15:07:51.833Z,36.77
2023-02-23T15:11:03.346Z,36.90
2023-02-23T15:14:10.529Z,36.73
2023-02-23T15:17:22.978Z,35.80
2023-02-23T15:23:39.830Z,37.57
2023-02-23T15:26:43.763Z,36.30
2023-02-23T15:29:47.569Z,37.47
2023-02-23T15:33:00.704Z,37.23
2023-02-23T15:36:09.802Z,37.57
2023-02-23T15:39:19.071Z,37.13
2023-02-23T15:42:28.039Z,39.53
2023-02-23T15:45:40.222Z,39.00
2023-02-23T15:48:48.525Z,39.23
2023-02-23T15:51:59.340Z,36.80
2023-02-23T15:55:10.119Z,39.40
2023-02-23T15:58:21.690Z,36.83
2023-02-23T16:01:28.133Z,37.77
2023-02-23T16:04:33.945Z,38.03
2023-02-23T16:07:43.344Z,38.30
2023-02-23T16:10:49.269Z,38.17
2023-02-23T16:13:55.051Z,38.60
2023-02-23T16:17:10.958Z,39.57
2023-02-23T16:20:19.482Z,37.67
2023-02-23T16:23:34.335Z,40.60
2023-02-23T16:26:47.237Z,39.20
2023-02-23T16:30:00.177Z,39.17
2023-02-23T16:33:08.396Z,39.83
2023-02-23T16:36:21.297Z,39.60
2023-02-23T16:39:29.595Z,40.70
2023-02-23T16:42:40.322Z,39.90
2023-02-23T16:45:44.924Z,43.77
2023-02-23T16:48:48.670Z,42.20
2023-02-23T16:51:52.200Z,43.77
2023-02-23T16:54:57.516Z,46.00
2023-02-23T16:58:04.868Z,46.63
2023-02-23T17:01:10.585Z,48.10
2023-02-23T17:04:16.230Z,49.43
2023-02-23T17:07:24.123Z,51.97
2023-02-23T17:10:31.963Z,50.23
2023-02-23T17:13:37.038Z,55.17
2023-02-23T17:16:40.217Z,53.83
2023-02-23T17:19:44.128Z,51.73
2023-02-23T17:34:09.773Z,53.37
2023-02-23T17:37:12.833Z,56.17
2023-02-23T17:40:18.946Z,54.80
2023-02-23T17:43:23.239Z,56.70
2023-02-23T17:46:29.257Z,57.90
2023-02-23T17:49:33.917Z,55.63
2023-02-23T17:52:37.119Z,55.83
2023-02-23T17:55:40.362Z,60.63
2023-02-23T17:58:43.514Z,59.80
2023-02-23T18:01:48.626Z,60.97
2023-02-23T18:04:54.140Z,62.77
2023-02-23T18:08:01.871Z,58.73
2023-02-23T18:11:05.425Z,64.30
2023-02-23T18:14:09.541Z,63.20
2023-02-23T18:17:13.709Z,65.20
2023-02-23T18:20:18.769Z,61.60
2023-02-23T18:23:23.038Z,64.50
2023-02-23T18:26:27.063Z,66.13
2023-02-23T18:29:34.450Z,65.90
2023-02-23T18:32:37.767Z,63.80
2023-02-23T18:35:45.073Z,61.80
2023-02-23T18:38:48.584Z,63.87
2023-02-23T18:41:51.969Z,62.83
2023-02-23T18:44:55.041Z,62.43
2023-02-23T18:47:59.943Z,62.50
2023-02-23T18:51:05.861Z,62.43
2023-02-23T18:54:11.719Z,60.17
2023-02-23T18:57:18.303Z,61.00
2023-02-23T19:00:22.689Z,61.03
2023-02-23T19:03:25.894Z,59.63
2023-02-23T19:06:33.036Z,59.17
2023-02-23T19:09:47.153Z,53.53
2023-02-23T19:12:50.422Z,54.40
2023-02-23T19:16:01.611Z,53.77
2023-02-23T19:19:07.440Z,54.90
2023-02-23T19:22:19.171Z,58.10
2023-02-23T19:25:28.459Z,58.97
2023-02-23T19:28:32.560Z,57.67
2023-02-23T19:31:42.688Z,58.90
2023-02-23T19:34:48.267Z,54.53
2023-02-23T19:37:57.534Z,53.27
2023-02-23T19:41:00.791Z,54.70
2023-02-23T19:44:04.470Z,55.83
2023-02-23T19:47:07.525Z,56.30
2023-02-23T19:50:18.843Z,52.33
2023-02-23T19:53:28.056Z,50.60
2023-02-23T19:56:31.309Z,51.93
2023-02-23T19:59:34.389Z,49.80
2023-02-23T20:02:42.482Z,47.90
2023-02-23T20:05:45.678Z,48.47
2023-02-23T20:08:55.194Z,46.63
2023-02-23T20:11:58.940Z,46.40
2023-02-23T20:15:05.210Z,50.27
2023-02-23T20:18:09.023Z,38.07
2023-02-23T20:21:16.455Z,31.67
2023-02-23T20:24:21.683Z,31.23
2023-02-23T20:27:24.985Z,28.30
2023-02-23T20:30:32.209Z,30.10
2023-02-23T20:33:38.766Z,28.03
2023-02-23T20:36:42.076Z,30.20
2023-02-23T20:39:47.441Z,29.30
2023-02-23T20:42:52.560Z,29.97
2023-02-23T20:46:00.796Z,30.77
2023-02-23T20:49:05.458Z,32.13
2023-02-23T20:52:08.684Z,32.90
2023-02-23T20:55:18.410Z,32.97
2023-02-23T20:58:25.989Z,32.80
2023-02-23T21:01:29.684Z,32.97
2023-02-23T21:04:35.281Z,36.23
2023-02-23T21:07:38.974Z,32.73
2023-02-23T21:10:43.506Z,35.83
2023-02-23T21:13:47.241Z,34.43
2023-02-23T21:16:50.390Z,35.17
2023-02-23T21:19:53.445Z,35.40
2023-02-23T21:22:59.129Z,36.10
2023-02-23T21:26:14.790Z,36.07
2023-02-23T21:29:23.814Z,34.50
2023-02-23T21:32:31.122Z,35.07
2023-02-23T21:35:38.330Z,32.77
2023-02-23T21:38:45.863Z,33.97
2023-02-23T21:41:50.401Z,33.40
2023-02-23T21:44:56.328Z,35.30
2023-02-23T21:48:01.496Z,36.30
2023-02-23T21:51:09.257Z,34.63
2023-02-23T21:54:21.515Z,33.87
2023-02-23T21:57:30.607Z,36.87
2023-02-23T22:00:35.753Z,35.23
2023-02-23T22:03:43.462Z,36.27
2023-02-23T22:06:46.580Z,37.90
2023-02-23T22:09:51.671Z,38.23
2023-02-23T22:12:56.928Z,37.80
2023-02-23T22:16:00.708Z,37.83
2023-02-23T22:19:05.077Z,35.87
2023-02-23T22:22:11.351Z,38.10
2023-02-23T22:25:17.355Z,39.30
2023-02-23T22:28:25.943Z,35.97
2023-02-23T22:31:32.553Z,37.30
2023-02-23T22:34:36.358Z,35.03
2023-02-23T22:37:39.715Z,37.77
2023-02-23T22:40:47.463Z,36.50
2023-02-23T22:43:55.686Z,34.07
2023-02-23T22:47:00.801Z,35.20
2023-02-23T22:50:15.104Z,37.20
2023-02-23T22:53:19.293Z,35.53
2023-02-23T22:56:25.039Z,35.27
2023-02-23T22:59:30.551Z,36.10
2023-02-23T23:02:36.425Z,34.53
2023-02-23T23:05:41.741Z,38.20
2023-02-23T23:08:49.382Z,32.77
2023-02-23T23:11:52.647Z,33.83
2023-02-23T23:15:01.357Z,35.40
2023-02-23T23:18:13.941Z,33.73
2023-02-23T23:21:21.894Z,32.43
2023-02-23T23:24:26.204Z,33.17
2023-02-23T23:27:33.094Z,33.93
2023-02-23T23:30:41.096Z,33.27
2023-02-23T23:33:51.257Z,31.47
2023-02-23T23:36:55.498Z,30.87
2023-02-23T23:40:00.290Z,30.60
2023-02-23T23:43:07.468Z,32.87
2023-02-23T23:46:14.941Z,32.07
2023-02-23T23:49:21.133Z,29.77
2023-02-23T23:52:25.267Z,27.57
2023-02-23T23:55:31.709Z,29.13
2023-02-23T23:58:35.065Z,26.27
